createdAt,value
2023-01-02T00:03:49.462Z,18.90
2023-01-02T00:08:05.946Z,19.45
2023-01-02T00:12:22.277Z,20.77
2023-01-02T00:16:38.543Z,22.17
2023-01-02T00:20:54.847Z,21.95
2023-01-02T00:25:11.146Z,21.73
2023-01-02T00:29:27.567Z,20.60
2023-01-02T00:33:44.298Z,20.77
2023-01-02T00:38:00.534Z,21.80
2023-01-02T00:42:16.829Z,23.27
2023-01-02T00:46:33.111Z,21.98
2023-01-02T00:50:49.894Z,22.60
2023-01-02T00:55:06.472Z,21.45
2023-01-02T00:59:22.716Z,23.02
2023-01-02T01:03:38.975Z,22.83
2023-01-02T01:07:56.386Z,23.10
2023-01-02T01:12:12.609Z,22.75
2023-01-02T01:16:28.942Z,23.48
2023-01-02T01:20:45.156Z,22.05
2023-01-02T01:25:01.427Z,22.77
2023-01-02T01:29:17.737Z,23.38
2023-01-02T01:33:34.315Z,23.00
2023-01-02T01:37:53.402Z,23.27
2023-01-02T01:42:13.779Z,23.15
2023-01-02T01:46:47.460Z,20.95
2023-01-02T01:55:47.149Z,19.75
2023-01-02T02:00:04.637Z,20.80
2023-01-02T02:04:22.285Z,20.85
2023-01-02T02:09:01.994Z,22.20
2023-01-02T02:13:18.493Z,20.90
2023-01-02T02:17:56.580Z,22.30
2023-01-02T02:22:28.550Z,21.48
2023-01-02T02:27:22.868Z,21.62
2023-01-02T02:32:16.919Z,21.65
2023-01-02T02:36:46.469Z,22.80
2023-01-02T02:41:08.944Z,21.23
2023-01-02T02:46:00.411Z,23.65
2023-01-02T02:50:31.570Z,22.85
2023-01-02T02:59:25.657Z,23.00
2023-01-02T03:03:41.995Z,22.48
2023-01-02T03:08:10.228Z,22.17
2023-01-02T03:12:53.396Z,22.20
2023-01-02T03:17:41.910Z,22.93
2023-01-02T03:22:08.908Z,21.77
2023-01-02T03:26:31.327Z,21.58
2023-01-02T03:30:52.113Z,20.98
2023-01-02T03:35:12.345Z,22.85
2023-01-02T03:39:30.828Z,20.95
2023-01-02T03:43:56.343Z,21.90
2023-01-02T03:48:44.046Z,21.12
2023-01-02T03:53:00.538Z,21.42
2023-01-02T03:57:29.991Z,19.70
2023-01-02T04:02:10.602Z,21.48
2023-01-02T04:06:32.035Z,20.42
2023-01-02T04:10:56.263Z,18.92
2023-01-02T04:15:17.649Z,22.23
2023-01-02T04:19:48.328Z,22.33
2023-01-02T04:24:16.336Z,22.08
2023-01-02T04:28:34.665Z,22.27
2023-01-02T04:32:51.709Z,21.12
2023-01-02T04:37:07.965Z,21.83
2023-01-02T04:41:28.820Z,22.65
2023-01-02T04:45:45.155Z,21.77
2023-01-02T04:50:01.423Z,21.37
2023-01-02T04:54:17.673Z,20.37
2023-01-02T04:58:33.834Z,20.73
2023-01-02T05:02:50.324Z,21.70
2023-01-02T05:07:07.037Z,19.48
2023-01-02T05:11:23.342Z,19.95
2023-01-02T05:15:39.612Z,19.83
2023-01-02T05:19:55.860Z,18.15
2023-01-02T05:24:12.341Z,19.00
2023-01-02T05:28:31.204Z,20.17
2023-01-02T05:32:51.550Z,19.42
2023-01-02T05:37:07.845Z,19.00
2023-01-02T05:41:24.215Z,21.05
2023-01-02T05:45:40.452Z,19.67
2023-01-02T05:49:56.817Z,19.60
2023-01-02T05:54:16.056Z,19.87
2023-01-02T05:58:34.378Z,20.75
2023-01-02T06:02:50.838Z,19.42
2023-01-02T06:07:07.198Z,19.45
2023-01-02T06:11:23.549Z,19.50
2023-01-02T06:15:39.861Z,20.05
2023-01-02T06:19:56.191Z,19.48
2023-01-02T06:24:12.585Z,20.37
2023-01-02T06:28:28.921Z,20.90
2023-01-02T06:32:45.268Z,20.60
2023-01-02T06:37:06.155Z,19.73
2023-01-02T06:41:25.709Z,20.15
2023-01-02T06:45:41.977Z,20.42
2023-01-02T06:49:58.388Z,22.50
2023-01-02T06:54:14.598Z,19.80
2023-01-02T06:58:32.903Z,21.33
2023-01-02T07:02:49.200Z,19.48
2023-01-02T07:07:05.758Z,19.80
2023-01-02T07:11:24.510Z,20.67
2023-01-02T07:15:40.744Z,21.65
2023-01-02T07:20:01.671Z,20.98
2023-01-02T07:24:18.504Z,21.90
2023-01-02T07:28:35.770Z,20.88
2023-01-02T07:32:56.424Z,19.83
2023-01-02T07:37:12.808Z,19.87
2023-01-02T07:41:28.974Z,20.35
2023-01-02T07:45:50.010Z,20.05
2023-01-02T07:50:09.667Z,19.12
2023-01-02T07:54:25.874Z,19.62
2023-01-02T07:58:42.258Z,19.90
2023-01-02T08:02:58.559Z,18.67
2023-01-02T08:07:14.834Z,20.08
2023-01-02T08:11:31.099Z,20.33
2023-01-02T08:15:47.350Z,20.50
2023-01-02T08:20:08.018Z,21.48
2023-01-02T08:24:24.706Z,20.90
2023-01-02T08:28:41.721Z,21.75
2023-01-02T08:32:57.886Z,21.20
2023-01-02T08:37:15.288Z,21.40
2023-01-02T08:41:41.708Z,20.30
2023-01-02T08:45:57.980Z,20.92
2023-01-02T08:50:14.274Z,20.50
2023-01-02T08:54:30.529Z,20.83
2023-01-02T08:58:52.772Z,21.85
2023-01-02T09:03:11.766Z,21.40
2023-01-02T09:07:28.970Z,22.25
2023-01-02T09:11:52.287Z,22.50
2023-01-02T09:16:09.209Z,22.35
2023-01-02T09:20:27.600Z,23.17
2023-01-02T09:24:43.797Z,22.87
2023-01-02T09:29:00.145Z,22.95
2023-01-02T09:33:16.402Z,23.52
2023-01-02T09:37:32.736Z,24.35
2023-01-02T09:41:54.565Z,23.10
2023-01-02T09:46:20.428Z,23.23
2023-01-02T09:50:36.714Z,22.98
2023-01-02T09:54:52.993Z,23.95
2023-01-02T09:59:23.704Z,22.73
2023-01-02T10:04:10.734Z,23.02
2023-01-02T10:08:42.114Z,23.02
2023-01-02T10:13:16.946Z,25.15
2023-01-02T10:17:42.121Z,21.95
2023-01-02T10:22:01.016Z,21.98
2023-01-02T10:26:23.425Z,21.33
2023-01-02T10:30:44.205Z,22.98
2023-01-02T10:35:09.801Z,22.80
2023-01-02T10:39:28.089Z,23.05
2023-01-02T10:43:47.553Z,21.98
2023-01-02T10:48:03.920Z,24.65
2023-01-02T10:52:30.161Z,23.92
2023-01-02T10:56:49.694Z,22.52
2023-01-02T11:01:19.413Z,23.80
2023-01-02T11:05:43.477Z,21.55
2023-01-02T11:09:59.835Z,22.67
2023-01-02T11:14:16.075Z,23.52
2023-01-02T11:18:34.834Z,25.73
2023-01-02T11:22:51.487Z,23.27
2023-01-02T11:27:09.538Z,24.60
2023-01-02T11:31:25.931Z,26.60
2023-01-02T11:36:05.823Z,25.25
2023-01-02T11:40:32.780Z,24.15
2023-01-02T11:45:03.639Z,22.25
2023-01-02T11:49:29.555Z,21.75
2023-01-02T11:53:48.818Z,19.87
2023-01-02T11:58:17.366Z,20.48
2023-01-02T12:02:46.027Z,19.27
2023-01-02T12:07:22.549Z,21.05
2023-01-02T12:11:48.221Z,21.30
2023-01-02T12:16:13.665Z,20.55
2023-01-02T12:20:41.515Z,21.80
2023-01-02T12:25:07.397Z,21.60
2023-01-02T12:29:55.295Z,23.08
2023-01-02T12:34:26.087Z,23.23
2023-01-02T12:39:00.800Z,21.77
2023-01-02T12:43:25.636Z,22.15
2023-01-02T12:48:12.976Z,22.48
2023-01-02T12:53:05.237Z,20.85
2023-01-02T12:57:55.730Z,19.60
2023-01-02T13:02:49.543Z,19.98
2023-01-02T13:11:51.041Z,20.33
2023-01-02T13:16:24.569Z,19.85
2023-01-02T13:21:11.587Z,19.83
2023-01-02T13:25:30.829Z,19.52
2023-01-02T13:29:47.269Z,19.67
2023-01-02T13:34:22.349Z,19.73
2023-01-02T13:38:39.707Z,22.92
2023-01-02T13:43:00.116Z,28.48
2023-01-02T13:47:34.054Z,25.12
2023-01-02T13:52:00.054Z,26.23
2023-01-02T13:56:23.576Z,25.00
2023-01-02T14:04:57.360Z,25.58
2023-01-02T14:09:18.738Z,24.27
2023-01-02T14:13:52.117Z,24.80
2023-01-02T14:18:11.961Z,24.40
2023-01-02T14:22:28.310Z,23.20
2023-01-02T14:26:51.267Z,23.45
2023-01-02T14:31:18.833Z,25.55
2023-01-02T14:35:38.995Z,24.05
2023-01-02T14:39:55.212Z,24.85
2023-01-02T14:44:12.065Z,26.25
2023-01-02T14:48:36.207Z,25.30
2023-01-02T14:53:09.857Z,26.70
2023-01-02T15:01:51.726Z,25.25
2023-01-02T15:10:56.640Z,25.17
2023-01-02T15:15:14.325Z,27.13
2023-01-02T15:19:33.266Z,27.62
2023-01-02T15:23:51.614Z,27.55
2023-01-02T15:28:29.272Z,27.45
2023-01-02T15:32:49.593Z,25.45
2023-01-02T15:37:07.810Z,25.12
2023-01-02T15:41:24.001Z,25.67
2023-01-02T15:45:58.618Z,27.17
2023-01-02T15:50:19.709Z,25.58
2023-01-02T15:54:37.363Z,26.77
2023-01-02T15:58:53.598Z,26.85
2023-01-02T16:03:11.805Z,26.12
2023-01-02T16:07:28.431Z,27.37
2023-01-02T16:11:51.090Z,28.30
2023-01-02T16:16:15.837Z,27.93
2023-01-02T16:20:33.319Z,28.98
2023-01-02T16:25:05.851Z,26.83
2023-01-02T16:29:23.399Z,26.35
2023-01-02T16:33:42.044Z,27.27
2023-01-02T16:38:00.290Z,25.90
2023-01-02T16:42:37.671Z,25.67
2023-01-02T16:46:53.966Z,25.98
2023-01-02T16:51:10.215Z,27.05
2023-01-02T16:55:26.432Z,28.17
2023-01-02T16:59:43.545Z,28.15
2023-01-02T17:04:00.092Z,27.33
2023-01-02T17:08:21.884Z,27.35
2023-01-02T17:12:43.402Z,27.13
2023-01-02T17:17:00.227Z,28.30
2023-01-02T17:21:16.508Z,26.67
2023-01-02T17:25:32.778Z,26.55
2023-01-02T17:29:48.998Z,26.58
2023-01-02T17:34:05.250Z,27.33
2023-01-02T17:38:21.891Z,25.37
2023-01-02T17:42:40.493Z,27.30
2023-01-02T17:47:23.220Z,24.55
2023-01-02T17:51:33.447Z,24.63
2023-01-02T17:56:21.349Z,25.83
2023-01-02T18:00:32.425Z,25.90
2023-01-02T18:04:54.876Z,25.70
2023-01-02T18:09:11.664Z,28.35
2023-01-02T18:13:35.122Z,27.20
2023-01-02T18:22:18.177Z,25.62
2023-01-02T18:26:43.750Z,28.80
2023-01-02T18:31:00.190Z,25.70
2023-01-02T18:40:02.389Z,25.95
2023-01-02T18:44:29.086Z,23.08
2023-01-02T18:48:45.876Z,23.98
2023-01-02T18:53:23.712Z,22.75
2023-01-02T18:58:01.557Z,22.65
2023-01-02T19:02:52.639Z,22.90
2023-01-02T19:07:28.797Z,21.58
2023-01-02T19:12:20.500Z,22.27
2023-01-02T19:16:36.761Z,24.52
2023-01-02T19:21:19.629Z,24.35
2023-01-02T19:25:35.821Z,24.23
2023-01-02T19:29:53.014Z,24.58
2023-01-02T19:34:41.048Z,24.40
2023-01-02T19:38:57.496Z,25.70
2023-01-02T19:43:13.723Z,25.42
2023-01-02T19:47:32.848Z,25.83
2023-01-02T19:51:49.058Z,24.20
2023-01-02T19:56:05.495Z,24.33
2023-01-02T20:00:21.928Z,25.83
2023-01-02T20:04:38.129Z,24.80
2023-01-02T20:08:54.505Z,25.95
2023-01-02T20:13:10.683Z,25.90
2023-01-02T20:17:28.751Z,24.45
2023-01-02T20:21:45.043Z,25.42
2023-01-02T20:26:01.861Z,26.12
2023-01-02T20:30:23.898Z,26.80
2023-01-02T20:34:44.817Z,25.52
2023-01-02T20:39:01.140Z,27.17
2023-01-02T20:43:17.546Z,27.65
2023-01-02T20:47:36.553Z,28.50
2023-01-02T20:51:56.229Z,26.35
2023-01-02T20:56:12.423Z,27.08
2023-01-02T21:00:28.931Z,26.27
2023-01-02T21:04:45.219Z,27.40
2023-01-02T21:09:02.630Z,26.70
2023-01-02T21:13:18.959Z,27.85
2023-01-02T21:17:35.142Z,27.62
2023-01-02T21:21:51.361Z,25.45
2023-01-02T21:26:09.740Z,26.62
2023-01-02T21:30:29.002Z,25.92
2023-01-02T21:34:45.277Z,26.35
2023-01-02T21:39:01.557Z,26.65
2023-01-02T21:43:17.815Z,27.02
2023-01-02T21:47:34.164Z,26.77
2023-01-02T21:51:50.447Z,26.92
2023-01-02T21:56:06.892Z,27.45
2023-01-02T22:00:28.516Z,28.73
2023-01-02T22:04:44.762Z,26.83
2023-01-02T22:09:02.340Z,26.27
2023-01-02T22:13:18.683Z,24.05
2023-01-02T22:17:35.038Z,23.52
2023-01-02T22:21:52.030Z,18.67
2023-01-02T22:26:15.639Z,19.20
2023-01-02T22:30:34.950Z,19.15
2023-01-02T22:34:52.013Z,18.67
2023-01-02T22:39:27.641Z,19.27
2023-01-02T22:43:45.829Z,20.40
2023-01-02T22:48:06.300Z,18.58
2023-01-02T22:52:23.115Z,18.23
2023-01-02T22:56:39.908Z,19.52
2023-01-02T23:01:02.125Z,20.15
2023-01-02T23:05:20.778Z,18.62
2023-01-02T23:09:37.114Z,17.75
2023-01-02T23:13:56.808Z,16.25
2023-01-02T23:18:31.723Z,16.30
2023-01-02T23:22:48.394Z,16.08
2023-01-02T23:27:10.564Z,17.67
2023-01-02T23:31:26.882Z,18.12
2023-01-02T23:35:43.168Z,17.92
2023-01-02T23:39:59.480Z,17.95
2023-01-02T23:44:16.235Z,19.00
2023-01-02T23:48:32.601Z,18.70
2023-01-02T23:52:48.893Z,19.35
2023-01-02T23:57:05.206Z,20.10
